createdAt,value
2022-12-09T00:01:30.167Z,10.13
2022-12-09T00:03:58.012Z,10.30
2022-12-09T00:06:26.343Z,10.67
2022-12-09T00:08:54.189Z,11.43
2022-12-09T00:11:22.065Z,11.53
2022-12-09T00:13:50.186Z,10.17
2022-12-09T00:16:19.220Z,10.57
2022-12-09T00:18:47.013Z,11.30
2022-12-09T00:21:14.881Z,9.27
2022-12-09T00:23:42.465Z,9.57
2022-12-09T00:26:10.042Z,10.20
2022-12-09T00:28:37.703Z,10.33
2022-12-09T00:31:05.675Z,12.03
2022-12-09T00:33:35.100Z,11.20
2022-12-09T00:36:06.760Z,9.30
2022-12-09T00:38:34.541Z,10.30
2022-12-09T00:41:02.012Z,11.53
2022-12-09T00:43:29.754Z,10.17
2022-12-09T00:45:57.709Z,9.87
2022-12-09T00:48:25.158Z,10.37
2022-12-09T00:50:53.952Z,10.43
2022-12-09T00:53:21.466Z,10.83
2022-12-09T00:55:49.193Z,11.20
2022-12-09T00:58:17.069Z,10.40
2022-12-09T01:00:44.728Z,8.40
2022-12-09T01:03:13.539Z,9.80
2022-12-09T01:05:41.332Z,10.77
2022-12-09T01:08:11.092Z,7.87
2022-12-09T01:10:39.295Z,9.87
2022-12-09T01:13:06.898Z,10.17
2022-12-09T01:15:35.932Z,8.30
2022-12-09T01:18:03.812Z,10.57
2022-12-09T01:20:31.548Z,8.63
2022-12-09T01:22:59.034Z,9.60
2022-12-09T01:25:27.860Z,9.00
2022-12-09T01:27:55.570Z,12.27
2022-12-09T01:30:23.206Z,11.27
2022-12-09T01:32:50.929Z,9.70
2022-12-09T01:35:18.879Z,10.90
2022-12-09T01:37:46.351Z,11.80
2022-12-09T01:40:16.979Z,10.20
2022-12-09T01:42:46.383Z,10.07
2022-12-09T01:45:32.832Z,8.93
2022-12-09T01:48:02.965Z,8.70
2022-12-09T01:50:30.641Z,10.90
2022-12-09T01:52:58.625Z,8.70
2022-12-09T01:55:26.780Z,9.73
2022-12-09T01:57:56.159Z,9.20
2022-12-09T02:00:23.624Z,9.60
2022-12-09T02:02:51.510Z,9.80
2022-12-09T02:05:19.684Z,8.80
2022-12-09T02:07:47.216Z,9.77
2022-12-09T02:10:16.195Z,10.47
2022-12-09T02:12:51.378Z,8.73
2022-12-09T02:15:22.598Z,10.90
2022-12-09T02:17:53.620Z,10.20
2022-12-09T02:20:24.406Z,10.13
2022-12-09T02:22:54.928Z,10.40
2022-12-09T02:25:28.307Z,10.93
2022-12-09T02:28:09.727Z,11.33
2022-12-09T02:30:43.364Z,9.83
2022-12-09T02:33:19.930Z,9.77
2022-12-09T02:35:51.267Z,9.73
2022-12-09T02:38:21.546Z,10.27
2022-12-09T02:40:51.319Z,9.27
2022-12-09T02:43:21.313Z,9.30
2022-12-09T02:45:50.511Z,10.47
2022-12-09T02:48:20.775Z,10.47
2022-12-09T02:50:50.701Z,12.40
2022-12-09T02:53:18.645Z,10.70
2022-12-09T02:55:47.414Z,11.80
2022-12-09T02:58:15.060Z,12.03
2022-12-09T03:00:42.995Z,12.47
2022-12-09T03:03:13.214Z,13.00
2022-12-09T03:05:45.641Z,14.43
2022-12-09T03:08:16.911Z,12.27
2022-12-09T03:10:47.695Z,12.50
2022-12-09T03:13:17.119Z,12.77
2022-12-09T03:15:48.113Z,11.80
2022-12-09T03:18:17.598Z,12.20
2022-12-09T03:20:46.303Z,12.33
2022-12-09T03:23:15.563Z,9.93
2022-12-09T03:25:46.271Z,9.90
2022-12-09T03:28:15.530Z,9.73
2022-12-09T03:30:44.919Z,12.03
2022-12-09T03:33:13.605Z,12.07
2022-12-09T03:35:42.492Z,10.50
2022-12-09T03:38:11.715Z,11.37
2022-12-09T03:40:39.966Z,9.03
2022-12-09T03:43:11.553Z,9.37
2022-12-09T03:45:39.444Z,7.80
2022-12-09T03:48:07.529Z,9.33
2022-12-09T03:50:36.844Z,9.67
2022-12-09T03:53:06.019Z,8.93
2022-12-09T03:55:38.167Z,8.83
2022-12-09T03:58:07.205Z,9.17
2022-12-09T04:00:38.210Z,8.77
2022-12-09T04:03:06.405Z,8.17
2022-12-09T04:05:34.005Z,8.40
2022-12-09T04:08:01.581Z,8.13
2022-12-09T04:10:29.125Z,9.10
2022-12-09T04:12:56.595Z,9.70
2022-12-09T04:15:24.275Z,10.20
2022-12-09T04:17:53.302Z,9.37
2022-12-09T04:20:20.749Z,9.93
2022-12-09T04:22:48.526Z,11.60
2022-12-09T04:25:16.386Z,9.50
2022-12-09T04:27:43.862Z,8.87
2022-12-09T04:30:12.076Z,9.03
2022-12-09T04:32:40.041Z,8.37
2022-12-09T04:35:09.427Z,9.40
2022-12-09T04:37:37.503Z,12.00
2022-12-09T04:40:06.150Z,11.07
2022-12-09T04:42:34.207Z,44.60
2022-12-09T04:45:01.729Z,55.87
2022-12-09T04:47:29.532Z,31.03
2022-12-09T04:49:57.119Z,58.87
2022-12-09T04:52:26.347Z,32.57
2022-12-09T04:54:54.051Z,51.13
2022-12-09T04:57:21.582Z,29.53
2022-12-09T04:59:49.435Z,48.17
2022-12-09T05:02:17.033Z,30.10
2022-12-09T05:04:46.814Z,57.53
2022-12-09T05:07:14.710Z,38.73
2022-12-09T05:09:43.845Z,15.63
2022-12-09T05:12:11.479Z,20.30
2022-12-09T05:14:38.982Z,26.67
2022-12-09T05:17:07.421Z,39.30
2022-12-09T05:19:35.017Z,26.00
2022-12-09T05:22:02.866Z,24.03
2022-12-09T05:24:30.691Z,16.80
2022-12-09T05:26:59.857Z,34.63
2022-12-09T05:29:27.768Z,27.20
2022-12-09T05:31:55.354Z,35.17
2022-12-09T05:34:22.913Z,22.03
2022-12-09T05:36:51.893Z,32.67
2022-12-09T05:39:19.802Z,29.53
2022-12-09T05:41:47.977Z,25.67
2022-12-09T05:44:17.116Z,30.57
2022-12-09T05:46:44.870Z,14.43
2022-12-09T05:49:12.784Z,15.70
2022-12-09T05:51:40.392Z,15.57
2022-12-09T05:54:09.008Z,11.77
2022-12-09T05:56:37.047Z,20.10
2022-12-09T05:59:05.530Z,13.70
2022-12-09T06:01:34.737Z,15.33
2022-12-09T06:04:02.416Z,19.23
2022-12-09T06:06:31.686Z,14.73
2022-12-09T06:09:01.599Z,16.63
2022-12-09T06:11:30.034Z,12.70
2022-12-09T06:13:57.724Z,15.83
2022-12-09T06:16:26.067Z,14.60
2022-12-09T06:18:55.525Z,13.73
2022-12-09T06:21:23.693Z,15.43
2022-12-09T06:23:51.653Z,15.53
2022-12-09T06:26:20.311Z,15.43
2022-12-09T06:28:48.139Z,15.63
2022-12-09T06:31:15.779Z,13.77
2022-12-09T06:33:54.902Z,16.40
2022-12-09T06:36:26.090Z,15.00
2022-12-09T06:38:54.063Z,17.97
2022-12-09T06:41:21.969Z,16.50
2022-12-09T06:43:50.800Z,19.67
2022-12-09T06:46:19.563Z,20.40
2022-12-09T06:48:47.374Z,25.37
2022-12-09T06:51:15.668Z,17.87
2022-12-09T06:53:46.187Z,20.43
2022-12-09T06:56:14.325Z,19.13
2022-12-09T06:58:42.595Z,22.00
2022-12-09T07:01:13.750Z,18.07
2022-12-09T07:03:42.240Z,18.17
2022-12-09T07:06:17.303Z,18.80
2022-12-09T07:08:46.423Z,18.27
2022-12-09T07:11:14.716Z,19.23
2022-12-09T07:13:42.348Z,23.33
2022-12-09T07:16:10.355Z,19.07
2022-12-09T07:18:38.175Z,16.77
2022-12-09T07:21:09.322Z,18.90
2022-12-09T07:23:37.101Z,23.30
2022-12-09T07:26:07.389Z,18.60
2022-12-09T07:28:35.265Z,19.37
2022-12-09T07:31:03.126Z,22.07
2022-12-09T07:33:31.156Z,23.97
2022-12-09T07:36:00.964Z,22.37
2022-12-09T07:38:28.659Z,24.23
2022-12-09T07:40:56.143Z,26.60
2022-12-09T07:43:24.933Z,24.83
2022-12-09T07:45:53.614Z,24.67
2022-12-09T07:48:21.693Z,19.03
2022-12-09T07:50:49.671Z,27.07
2022-12-09T07:53:18.282Z,24.33
2022-12-09T07:55:46.043Z,25.07
2022-12-09T07:58:13.550Z,21.80
2022-12-09T08:00:42.819Z,24.43
2022-12-09T08:03:11.149Z,23.03
2022-12-09T08:05:39.392Z,21.57
2022-12-09T08:08:07.481Z,26.80
2022-12-09T08:10:35.561Z,27.50
2022-12-09T08:13:03.151Z,20.33
2022-12-09T08:15:31.043Z,22.80
2022-12-09T08:18:01.031Z,22.87
2022-12-09T08:20:29.596Z,22.83
2022-12-09T08:22:57.989Z,23.50
2022-12-09T08:25:25.816Z,23.80
2022-12-09T08:27:53.603Z,19.57
2022-12-09T08:30:21.303Z,23.53
2022-12-09T08:32:49.314Z,21.97
2022-12-09T08:35:18.390Z,24.93
2022-12-09T08:37:45.979Z,21.07
2022-12-09T08:40:14.297Z,22.00
2022-12-09T08:42:42.461Z,18.87
2022-12-09T08:45:10.681Z,22.17
2022-12-09T08:47:38.686Z,21.23
2022-12-09T08:50:07.494Z,25.70
2022-12-09T08:52:40.496Z,24.67
2022-12-09T08:55:09.439Z,26.03
2022-12-09T08:57:37.271Z,30.70
2022-12-09T09:00:05.402Z,30.20
2022-12-09T09:02:33.645Z,25.70
2022-12-09T09:05:01.688Z,29.83
2022-12-09T09:07:29.434Z,28.97
2022-12-09T09:09:58.904Z,26.73
2022-12-09T09:12:26.743Z,26.77
2022-12-09T09:14:54.820Z,30.93
2022-12-09T09:17:22.780Z,30.27
2022-12-09T09:19:51.372Z,25.17
2022-12-09T09:22:19.054Z,25.03
2022-12-09T09:24:46.876Z,26.17
2022-12-09T09:27:15.973Z,27.20
2022-12-09T09:29:43.825Z,22.67
2022-12-09T09:32:11.716Z,28.87
2022-12-09T09:34:39.467Z,27.30
2022-12-09T09:37:07.535Z,24.13
2022-12-09T09:39:35.462Z,23.70
2022-12-09T09:42:08.764Z,20.93
2022-12-09T09:44:40.085Z,22.43
2022-12-09T09:47:13.409Z,23.43
2022-12-09T09:49:44.706Z,20.87
2022-12-09T09:52:13.886Z,26.67
2022-12-09T09:54:41.667Z,22.83
2022-12-09T09:57:13.979Z,26.00
2022-12-09T09:59:48.481Z,20.87
2022-12-09T10:02:25.067Z,19.43
2022-12-09T10:05:00.694Z,19.83
2022-12-09T10:07:32.728Z,21.63
2022-12-09T10:10:05.379Z,19.10
2022-12-09T10:12:37.125Z,20.53
2022-12-09T10:15:10.886Z,20.97
2022-12-09T10:17:43.437Z,21.13
2022-12-09T10:20:13.775Z,22.37
2022-12-09T10:22:43.990Z,21.47
2022-12-09T10:25:17.791Z,23.60
2022-12-09T10:27:49.262Z,23.13
2022-12-09T10:30:19.076Z,21.77
2022-12-09T10:32:47.610Z,23.40
2022-12-09T10:35:16.616Z,22.07
2022-12-09T10:37:44.579Z,24.20
2022-12-09T10:40:21.223Z,22.70
2022-12-09T10:43:09.469Z,24.13
2022-12-09T10:46:15.897Z,31.73
2022-12-09T10:48:34.438Z,26.03
2022-12-09T10:51:04.502Z,22.50
2022-12-09T10:53:33.153Z,24.67
2022-12-09T10:56:01.802Z,23.07
2022-12-09T10:58:31.024Z,24.13
2022-12-09T11:01:01.549Z,27.50
2022-12-09T11:03:30.890Z,21.77
2022-12-09T11:06:00.848Z,21.37
2022-12-09T11:08:28.577Z,20.67
2022-12-09T11:10:56.254Z,23.40
2022-12-09T11:13:26.255Z,21.90
2022-12-09T11:15:59.474Z,22.37
2022-12-09T11:18:30.227Z,21.47
2022-12-09T11:20:59.416Z,19.63
2022-12-09T11:23:28.039Z,22.67
2022-12-09T11:25:57.758Z,20.57
2022-12-09T11:28:26.945Z,22.30
2022-12-09T11:31:27.746Z,22.83
2022-12-09T11:33:51.929Z,22.07
2022-12-09T11:36:20.744Z,19.80
2022-12-09T11:38:49.529Z,20.13
2022-12-09T11:41:41.390Z,21.23
2022-12-09T11:44:20.737Z,21.17
2022-12-09T11:46:55.005Z,22.07
2022-12-09T11:49:23.848Z,22.47
2022-12-09T11:52:00.801Z,22.70
2022-12-09T11:54:30.975Z,20.63
2022-12-09T11:56:59.421Z,21.23
2022-12-09T11:59:36.337Z,19.83
2022-12-09T12:02:07.162Z,21.17
2022-12-09T12:04:37.711Z,24.57
2022-12-09T12:07:07.649Z,21.90
2022-12-09T12:09:36.696Z,20.50
2022-12-09T12:12:07.259Z,19.53
2022-12-09T12:14:36.639Z,21.70
2022-12-09T12:17:08.414Z,16.73
2022-12-09T12:19:39.046Z,20.83
2022-12-09T12:22:24.391Z,21.27
2022-12-09T12:25:01.108Z,19.93
2022-12-09T12:27:36.316Z,19.57
2022-12-09T12:30:06.097Z,12.97
2022-12-09T12:32:43.009Z,15.40
2022-12-09T12:35:25.278Z,7.73
2022-12-09T12:38:01.991Z,6.87
2022-12-09T12:40:33.979Z,9.47
2022-12-09T12:43:24.346Z,8.40
2022-12-09T12:46:11.507Z,8.70
2022-12-09T12:48:43.503Z,7.37
2022-12-09T12:51:17.530Z,10.10
2022-12-09T12:53:50.542Z,8.37
2022-12-09T12:56:20.056Z,8.20
2022-12-09T12:58:55.986Z,10.43
2022-12-09T13:01:32.119Z,11.23
2022-12-09T13:04:03.039Z,14.10
2022-12-09T13:06:35.958Z,18.90
2022-12-09T13:09:07.097Z,14.87
2022-12-09T13:11:38.482Z,17.33
2022-12-09T13:14:08.362Z,20.87
2022-12-09T13:16:38.185Z,15.80
2022-12-09T13:19:07.898Z,16.17
2022-12-09T13:21:35.703Z,13.53
2022-12-09T13:24:08.530Z,14.03
2022-12-09T13:26:41.230Z,12.30
2022-12-09T13:29:16.160Z,10.83
2022-12-09T13:31:47.657Z,10.77
2022-12-09T13:34:20.801Z,9.20
2022-12-09T13:36:48.937Z,11.60
2022-12-09T13:39:31.219Z,10.37
2022-12-09T13:42:17.647Z,9.80
2022-12-09T13:44:46.298Z,9.23
2022-12-09T13:47:24.177Z,9.13
2022-12-09T13:49:54.676Z,11.03
2022-12-09T13:52:37.079Z,11.40
2022-12-09T13:55:04.646Z,11.10
2022-12-09T13:57:38.528Z,9.40
2022-12-09T14:00:07.216Z,9.27
2022-12-09T14:02:38.549Z,9.07
2022-12-09T14:05:08.354Z,10.00
2022-12-09T14:07:38.470Z,10.63
2022-12-09T14:10:06.774Z,12.13
2022-12-09T14:12:53.274Z,11.57
2022-12-09T14:15:35.775Z,10.67
2022-12-09T14:18:06.654Z,9.77
2022-12-09T14:20:36.115Z,13.57
2022-12-09T14:23:24.349Z,15.13
2022-12-09T14:26:02.790Z,10.60
2022-12-09T14:28:41.547Z,11.00
2022-12-09T14:31:09.599Z,10.50
2022-12-09T14:33:39.340Z,11.57
2022-12-09T14:36:09.280Z,12.80
2022-12-09T14:39:07.760Z,12.10
2022-12-09T14:41:33.918Z,11.67
2022-12-09T14:44:04.245Z,13.33
2022-12-09T14:46:33.629Z,11.47
2022-12-09T14:49:04.956Z,11.33
2022-12-09T14:51:35.658Z,11.07
2022-12-09T14:54:05.462Z,11.93
2022-12-09T14:56:34.071Z,12.97
2022-12-09T14:59:03.285Z,10.50
2022-12-09T15:01:30.730Z,11.13
2022-12-09T15:03:58.918Z,11.10
2022-12-09T15:06:28.324Z,11.87
2022-12-09T15:08:57.469Z,14.33
2022-12-09T15:11:26.949Z,12.40
2022-12-09T15:13:55.781Z,13.90
2022-12-09T15:16:24.686Z,12.10
2022-12-09T15:18:53.016Z,12.43
2022-12-09T15:21:26.566Z,22.83
2022-12-09T15:23:55.516Z,34.90
2022-12-09T15:26:24.666Z,23.80
2022-12-09T15:28:52.811Z,22.60
2022-12-09T15:31:21.698Z,22.83
2022-12-09T15:33:50.711Z,19.33
2022-12-09T15:36:19.602Z,22.03
2022-12-09T15:38:49.407Z,23.87
2022-12-09T15:41:36.764Z,14.90
2022-12-09T15:44:07.408Z,16.23
2022-12-09T15:46:35.893Z,13.57
2022-12-09T15:49:04.483Z,16.40
2022-12-09T15:51:32.339Z,13.57
2022-12-09T15:54:01.219Z,14.67
2022-12-09T15:56:32.765Z,13.93
2022-12-09T15:59:02.126Z,15.63
2022-12-09T16:01:31.245Z,15.17
2022-12-09T16:03:59.937Z,11.83
2022-12-09T16:06:28.681Z,17.20
2022-12-09T16:08:56.131Z,15.40
2022-12-09T16:11:37.774Z,15.73
2022-12-09T16:14:05.855Z,17.50
2022-12-09T16:16:36.610Z,17.40
2022-12-09T16:19:04.231Z,18.27
2022-12-09T16:21:33.578Z,17.30
2022-12-09T16:24:06.428Z,16.10
2022-12-09T16:26:36.115Z,15.13
2022-12-09T16:29:05.906Z,13.63
2022-12-09T16:31:33.426Z,15.13
2022-12-09T16:34:00.943Z,14.33
2022-12-09T16:36:29.288Z,14.00
2022-12-09T16:39:32.164Z,14.17
2022-12-09T16:42:01.667Z,15.43
2022-12-09T16:44:31.334Z,12.73
2022-12-09T16:47:10.572Z,12.30
2022-12-09T16:49:38.180Z,16.10
2022-12-09T16:52:05.756Z,15.20
2022-12-09T16:54:33.152Z,14.63
2022-12-09T16:57:00.579Z,14.53
2022-12-09T16:59:34.788Z,13.30
2022-12-09T17:02:10.290Z,13.13
2022-12-09T17:04:37.695Z,14.23
2022-12-09T17:07:05.162Z,15.10
2022-12-09T17:09:32.783Z,15.57
2022-12-09T17:12:00.202Z,15.00
2022-12-09T17:14:27.738Z,15.67
2022-12-09T17:16:55.233Z,18.07
2022-12-09T17:19:24.119Z,20.03
2022-12-09T17:21:52.341Z,16.60
2022-12-09T17:24:20.779Z,15.33
2022-12-09T17:26:48.168Z,15.77
2022-12-09T17:29:15.582Z,13.67
2022-12-09T17:31:43.045Z,15.10
2022-12-09T17:34:10.494Z,13.97
2022-12-09T17:36:39.460Z,13.67
2022-12-09T17:39:07.328Z,18.53
2022-12-09T17:41:34.768Z,18.87
2022-12-09T17:44:02.292Z,19.73
2022-12-09T17:46:30.101Z,31.20
2022-12-09T17:48:57.583Z,29.23
2022-12-09T17:51:25.163Z,27.40
2022-12-09T17:53:55.465Z,25.40
2022-12-09T17:56:23.774Z,29.77
2022-12-09T17:58:55.469Z,30.53
2022-12-09T18:01:24.148Z,26.33
2022-12-09T18:03:56.785Z,22.80
2022-12-09T18:06:25.507Z,22.10
2022-12-09T18:08:54.495Z,21.43
2022-12-09T18:11:22.470Z,21.67
2022-12-09T18:13:50.007Z,22.03
2022-12-09T18:16:17.472Z,22.37
2022-12-09T18:18:44.936Z,18.77
2022-12-09T18:21:15.984Z,27.33
2022-12-09T18:23:43.903Z,24.07
2022-12-09T18:26:13.750Z,25.50
2022-12-09T18:28:42.328Z,18.33
2022-12-09T18:31:10.452Z,25.37
2022-12-09T18:33:38.171Z,23.50
2022-12-09T18:36:06.807Z,21.47
2022-12-09T18:38:34.291Z,21.63
2022-12-09T18:41:04.635Z,22.60
2022-12-09T18:43:34.908Z,20.50
2022-12-09T18:46:02.922Z,21.73
2022-12-09T18:48:31.562Z,25.63
2022-12-09T18:50:59.008Z,24.07
2022-12-09T18:53:26.997Z,30.03
2022-12-09T18:55:54.646Z,26.17
2022-12-09T18:58:36.834Z,22.77
2022-12-09T19:01:18.276Z,22.30
2022-12-09T19:03:46.806Z,28.67
2022-12-09T19:06:21.755Z,19.80
2022-12-09T19:08:53.533Z,23.33
2022-12-09T19:11:21.794Z,27.77
2022-12-09T19:13:49.281Z,25.07
2022-12-09T19:16:18.115Z,19.50
2022-12-09T19:18:45.891Z,27.03
2022-12-09T19:21:15.506Z,28.00
2022-12-09T19:23:43.444Z,33.97
2022-12-09T19:26:14.032Z,28.83
2022-12-09T19:28:45.637Z,18.93
2022-12-09T19:31:13.974Z,32.53
2022-12-09T19:33:42.858Z,26.43
2022-12-09T19:36:10.907Z,26.83
2022-12-09T19:38:38.392Z,19.57
2022-12-09T19:41:06.043Z,19.70
2022-12-09T19:43:33.458Z,19.80
2022-12-09T19:46:04.638Z,23.13
2022-12-09T19:48:32.118Z,24.07
2022-12-09T19:51:04.315Z,21.80
2022-12-09T19:53:32.070Z,22.37
2022-12-09T19:56:02.675Z,24.23
2022-12-09T19:58:31.276Z,22.23
2022-12-09T20:00:59.048Z,25.53
2022-12-09T20:03:26.501Z,22.30
2022-12-09T20:05:55.591Z,25.73
2022-12-09T20:08:25.049Z,23.20
2022-12-09T20:10:52.652Z,20.37
2022-12-09T20:13:20.442Z,24.57
2022-12-09T20:15:47.855Z,27.00
2022-12-09T20:18:15.262Z,23.23
2022-12-09T20:20:47.256Z,25.73
2022-12-09T20:23:16.354Z,28.83
2022-12-09T20:25:45.120Z,25.20
2022-12-09T20:28:12.526Z,26.40
2022-12-09T20:30:39.952Z,24.07
2022-12-09T20:33:07.389Z,24.60
2022-12-09T20:35:36.438Z,23.60
2022-12-09T20:38:04.179Z,25.53
2022-12-09T20:40:32.749Z,25.50
2022-12-09T20:43:03.842Z,25.67
2022-12-09T20:45:31.249Z,20.27
2022-12-09T20:47:58.658Z,25.77
2022-12-09T20:50:26.066Z,25.70
2022-12-09T20:52:53.531Z,25.27
2022-12-09T20:55:20.936Z,23.27
2022-12-09T20:57:48.323Z,26.00
2022-12-09T21:00:17.403Z,22.00
2022-12-09T21:02:44.949Z,20.57
2022-12-09T21:05:12.402Z,22.33
2022-12-09T21:07:39.904Z,22.27
2022-12-09T21:10:07.852Z,22.30
2022-12-09T21:12:35.640Z,20.97
2022-12-09T21:15:03.069Z,21.37
2022-12-09T21:17:31.817Z,21.67
2022-12-09T21:19:59.227Z,22.10
2022-12-09T21:22:30.325Z,22.40
2022-12-09T21:24:57.768Z,21.40
2022-12-09T21:27:25.148Z,16.83
2022-12-09T21:29:52.566Z,19.47
2022-12-09T21:32:20.022Z,18.40
2022-12-09T21:34:48.782Z,18.17
2022-12-09T21:37:16.211Z,22.20
2022-12-09T21:39:43.595Z,23.67
2022-12-09T21:42:10.993Z,22.67
2022-12-09T21:44:40.591Z,20.33
2022-12-09T21:47:07.994Z,22.70
2022-12-09T21:49:35.450Z,29.07
2022-12-09T21:52:06.471Z,24.30
2022-12-09T21:54:33.936Z,24.13
2022-12-09T21:57:01.433Z,20.83
2022-12-09T21:59:28.842Z,22.10
2022-12-09T22:01:56.917Z,23.40
2022-12-09T22:04:24.359Z,22.17
2022-12-09T22:06:51.819Z,20.63
2022-12-09T22:09:20.961Z,22.43
2022-12-09T22:11:48.539Z,20.20
2022-12-09T22:14:15.920Z,21.20
2022-12-09T22:16:44.281Z,21.30
2022-12-09T22:19:13.679Z,20.13
2022-12-09T22:21:41.949Z,22.50
2022-12-09T22:24:10.837Z,25.33
2022-12-09T22:26:39.947Z,27.17
2022-12-09T22:29:07.908Z,25.77
2022-12-09T22:31:36.423Z,24.43
2022-12-09T22:34:05.211Z,22.70
2022-12-09T22:36:33.027Z,23.37
2022-12-09T22:39:00.445Z,22.80
2022-12-09T22:41:29.705Z,20.83
2022-12-09T22:43:58.845Z,23.53
2022-12-09T22:46:27.661Z,25.67
2022-12-09T22:48:55.515Z,24.10
2022-12-09T22:51:24.073Z,25.50
2022-12-09T22:53:52.174Z,25.90
2022-12-09T22:56:19.918Z,25.23
2022-12-09T22:58:47.646Z,23.87
2022-12-09T23:01:18.627Z,23.40
2022-12-09T23:03:46.049Z,25.33
2022-12-09T23:06:13.776Z,20.53
2022-12-09T23:08:41.999Z,25.43
2022-12-09T23:11:11.309Z,24.53
2022-12-09T23:13:41.140Z,23.87
2022-12-09T23:16:11.788Z,24.67
2022-12-09T23:18:42.089Z,23.03
2022-12-09T23:21:10.913Z,22.83
2022-12-09T23:23:38.379Z,24.23
2022-12-09T23:26:06.918Z,26.43
2022-12-09T23:28:36.984Z,24.33
2022-12-09T23:31:04.772Z,20.97
2022-12-09T23:33:32.374Z,23.50
2022-12-09T23:36:05.031Z,24.37
2022-12-09T23:38:32.476Z,27.27
2022-12-09T23:40:59.901Z,23.23
2022-12-09T23:43:27.298Z,27.53
2022-12-09T23:45:54.703Z,26.83
2022-12-09T23:48:22.203Z,26.73
2022-12-09T23:50:49.607Z,26.33
2022-12-09T23:53:18.365Z,26.90
2022-12-09T23:55:45.779Z,25.70
2022-12-09T23:58:13.208Z,26.57
